Time;durP1;ratioP1;P1;durP2;ratioP2;P2;SDS_P1;SDS_P2;PMS_P1;PMS_P2;Temp;Humidity;BMP_temperature;BMP_pressure;BME280_temperature;BME280_humidity;BME280_pressure;Samples;Min_cycle;Max_cycle;Signal;HPM_P1;HPM_P2
2023/12/19 00:00:05;;;;;;;1.10;1.10;;;;;;;2.44;100.00;101411.25;5063035;28;20025;-88
2023/12/19 00:02:31;;;;;;;1.20;1.20;;;;;;;2.95;100.00;101471.03;5045345;28;20625;-88
2023/12/19 00:04:56;;;;;;;1.13;1.13;;;;;;;2.82;100.00;101450.63;5045145;28;20035;-89
2023/12/19 00:07:21;;;;;;;1.10;1.10;;;;;;;2.93;100.00;101462.22;5046330;28;20110;-89
2023/12/19 00:09:48;;;;;;;1.00;1.00;;;;;;;2.87;100.00;101441.09;5085881;28;20024;-88
2023/12/19 00:12:13;;;;;;;1.10;1.10;;;;;;;2.96;100.00;101428.13;5065825;28;20033;-88
2023/12/19 00:14:39;;;;;;;1.23;1.23;;;;;;;2.96;100.00;101428.13;5083158;28;20051;-88
2023/12/19 00:17:04;;;;;;;1.10;1.10;;;;;;;2.88;100.00;101406.97;5051271;28;20033;-88
2023/12/19 00:19:30;;;;;;;1.20;1.20;;;;;;;3.00;100.00;101411.59;5071100;28;20026;-89
2023/12/19 00:21:56;;;;;;;1.15;1.15;;;;;;;2.97;100.00;101400.97;5064777;28;20029;-89
2023/12/19 00:24:21;;;;;;;1.10;1.10;;;;;;;3.14;100.00;101425.88;5071017;28;20024;-89
2023/12/19 00:26:47;;;;;;;1.20;1.20;;;;;;;2.98;100.00;101397.50;5069265;28;20098;-89
2023/12/19 00:29:12;;;;;;;1.20;1.20;;;;;;;3.23;100.00;101454.97;5083494;28;20035;-89
2023/12/19 00:31:38;;;;;;;1.10;1.10;;;;;;;3.12;100.00;101456.47;5083622;28;20039;-89
2023/12/19 00:34:03;;;;;;;1.20;1.20;;;;;;;3.05;100.00;101433.59;5071194;28;20100;-90
2023/12/19 00:36:28;;;;;;;1.13;1.13;;;;;;;3.13;100.00;101439.88;5072995;28;20046;-90
2023/12/19 00:38:54;;;;;;;1.20;1.20;;;;;;;3.25;100.00;101462.03;5148401;22;20051;-91
2023/12/19 00:41:20;;;;;;;1.10;1.10;;;;;;;3.27;100.00;101452.44;5093124;28;20032;-92
2023/12/19 00:43:46;;;;;;;1.20;1.20;;;;;;;3.36;100.00;101446.47;5090403;28;20092;-92
2023/12/19 00:46:12;;;;;;;1.00;1.00;;;;;;;3.40;100.00;101449.19;5132819;22;20064;-91
2023/12/19 00:51:12;;;;;;;1.20;1.20;;;;;;;3.48;100.00;101433.53;5199684;23;20089;-92
2023/12/19 01:07:13;;;;;;;1.20;1.20;;;;;;;3.41;100.00;101415.88;5106363;28;20052;-91
2023/12/19 01:09:39;;;;;;;1.20;1.20;;;;;;;3.51;100.00;101445.00;5095547;28;20032;-90
2023/12/19 01:12:04;;;;;;;1.10;1.10;;;;;;;3.36;100.00;101428.06;5085891;28;20036;-91
2023/12/19 01:14:30;;;;;;;1.10;1.10;;;;;;;3.26;100.00;101412.97;5071807;28;20031;-91
2023/12/19 01:16:55;;;;;;;1.10;1.10;;;;;;;3.36;100.00;101423.66;5070343;28;20092;-92
2023/12/19 01:19:21;;;;;;;1.20;1.20;;;;;;;3.36;100.00;101417.53;5077883;28;20048;-91
2023/12/19 01:21:46;;;;;;;1.10;1.10;;;;;;;3.36;100.00;101401.75;5092665;28;20324;-91
2023/12/19 01:24:11;;;;;;;1.17;1.17;;;;;;;3.43;100.00;101419.41;5144903;22;20121;-93
2023/12/19 01:26:37;;;;;;;1.00;1.00;;;;;;;3.49;100.00;101432.69;5068743;28;20029;-92
2023/12/19 01:29:03;;;;;;;0.88;0.88;;;;;;;3.49;100.00;101438.81;5095295;28;20095;-91
2023/12/19 01:31:28;;;;;;;1.05;1.05;;;;;;;3.48;100.00;101441.41;5093078;28;20039;-91
2023/12/19 01:33:54;;;;;;;1.20;1.20;;;;;;;3.37;100.00;101435.09;5075813;28;20047;-92
2023/12/19 01:36:20;;;;;;;1.17;1.17;;;;;;;3.31;100.00;101433.22;5085198;28;20100;-92
2023/12/19 01:38:46;;;;;;;1.30;1.30;;;;;;;3.39;100.00;101443.88;5070365;28;20092;-92
2023/12/19 01:41:11;;;;;;;1.10;1.10;;;;;;;3.18;100.00;101417.19;5067283;28;20051;-91
2023/12/19 01:43:37;;;;;;;1.00;1.00;;;;;;;3.38;100.00;101473.66;5081266;28;20104;-91
2023/12/19 01:46:02;;;;;;;1.10;1.10;;;;;;;3.17;100.00;101457.47;5086353;28;20507;-91
2023/12/19 01:51:03;;;;;;;1.20;1.20;;;;;;;3.01;100.00;101456.28;5042268;28;20104;-91
2023/12/19 01:53:29;;;;;;;1.20;1.20;;;;;;;2.86;100.00;101442.81;5050894;28;20117;-91
2023/12/19 01:55:56;;;;;;;1.20;1.20;;;;;;;2.97;100.00;101464.06;5050240;28;20041;-90
2023/12/19 01:58:22;;;;;;;1.10;1.10;;;;;;;2.80;100.00;101431.31;5051172;28;20009;-91
2023/12/19 02:00:49;;;;;;;1.10;1.10;;;;;;;2.97;100.00;101458.78;5049862;28;20037;-91
2023/12/19 02:03:15;;;;;;;1.20;1.20;;;;;;;3.01;100.00;101468.53;5032083;28;20018;-91
2023/12/19 02:16:00;;;;;;;1.20;1.20;;;;;;;3.16;100.00;101445.19;5029949;28;20050;-90
2023/12/19 02:18:25;;;;;;;1.10;1.10;;;;;;;3.14;100.00;101446.91;5013044;28;20106;-90
2023/12/19 02:23:26;;;;;;;1.10;1.10;;;;;;;3.35;100.00;101463.97;5050317;28;20062;-91
2023/12/19 02:25:51;;;;;;;1.10;1.10;;;;;;;3.22;100.00;101433.06;5051565;28;20057;-91
2023/12/19 02:28:17;;;;;;;1.20;1.20;;;;;;;3.09;100.00;101417.00;5056315;28;20020;-91
2023/12/19 02:33:18;;;;;;;1.10;1.10;;;;;;;3.19;100.00;101437.34;5062566;28;20053;-91
2023/12/19 02:35:44;;;;;;;1.10;1.10;;;;;;;3.24;100.00;101443.59;5050661;28;20072;-91
2023/12/19 02:38:09;;;;;;;1.20;1.20;;;;;;;3.19;100.00;101461.03;5053987;28;20038;-90
2023/12/19 02:40:34;;;;;;;1.10;1.10;;;;;;;3.24;100.00;101467.25;5029600;28;20055;-90
2023/12/19 02:43:01;;;;;;;1.10;1.10;;;;;;;2.97;100.00;101443.03;5031381;28;20037;-90
2023/12/19 02:45:30;;;;;;;1.20;1.20;;;;;;;2.77;100.00;101418.09;5048098;28;20021;-90
2023/12/19 03:00:50;;;;;;;1.20;1.20;;;;;;;2.95;100.00;101460.53;5089037;28;20028;-89
2023/12/19 03:03:15;;;;;;;1.10;1.10;;;;;;;2.80;100.00;101434.78;5069973;28;20544;-89
2023/12/19 03:05:40;;;;;;;1.10;1.10;;;;;;;2.81;100.00;101446.19;5069566;28;20040;-90
2023/12/19 03:08:06;;;;;;;1.15;1.15;;;;;;;2.61;100.00;101424.75;5063445;28;20032;-90
2023/12/19 03:10:31;;;;;;;1.17;1.17;;;;;;;2.68;100.00;101424.91;5073885;28;20021;-91
2023/12/19 03:12:57;;;;;;;1.20;1.20;;;;;;;2.72;100.00;101438.13;5068602;28;20009;-90
2023/12/19 03:15:24;;;;;;;1.20;1.20;;;;;;;2.54;100.00;101407.97;5052310;28;20398;-90
2023/12/19 03:17:49;;;;;;;1.17;1.17;;;;;;;2.54;100.00;101405.34;5071326;28;20039;-89
2023/12/19 03:20:15;;;;;;;1.20;1.20;;;;;;;2.70;100.00;101433.72;5073791;28;20085;-91
2023/12/19 03:22:41;;;;;;;1.02;1.02;;;;;;;2.58;100.00;101414.19;5063144;28;20044;-91
2023/12/19 03:25:06;;;;;;;1.20;1.20;;;;;;;2.58;100.00;101416.81;5060158;28;20009;-90
2023/12/19 03:27:32;;;;;;;1.17;1.17;;;;;;;2.55;100.00;101422.88;5050181;28;20485;-91
2023/12/19 03:29:57;;;;;;;1.10;1.10;;;;;;;2.59;100.00;101429.09;5052645;28;20036;-91
2023/12/19 03:32:23;;;;;;;1.23;1.23;;;;;;;2.48;100.00;101414.84;5072277;28;20040;-90
2023/12/19 03:34:48;;;;;;;1.20;1.20;;;;;;;2.46;100.00;101422.69;5046581;28;20029;-90
2023/12/19 03:37:14;;;;;;;1.10;1.10;;;;;;;2.44;100.00;101416.50;5047289;28;20017;-90
2023/12/19 03:39:39;;;;;;;1.13;1.13;;;;;;;2.46;100.00;101411.28;5045016;28;20036;-90
2023/12/19 03:42:05;;;;;;;1.05;1.05;;;;;;;2.39;100.00;101389.25;5063189;28;20025;-91
2023/12/19 03:44:30;;;;;;;1.20;1.20;;;;;;;2.42;100.00;101394.56;5043939;28;20020;-91
2023/12/19 03:46:55;;;;;;;1.20;1.20;;;;;;;2.29;100.00;101376.78;5038782;28;20104;-90
2023/12/19 03:49:21;;;;;;;1.23;1.23;;;;;;;2.41;100.00;101400.69;5024818;28;20040;-90
2023/12/19 03:51:47;;;;;;;1.27;1.27;;;;;;;2.34;100.00;101409.28;5026947;28;20021;-90
2023/12/19 03:54:13;;;;;;;1.30;1.30;;;;;;;2.23;100.00;101383.63;5030912;28;20032;-91
2023/12/19 03:56:40;;;;;;;1.30;1.30;;;;;;;2.23;100.00;101405.53;5045842;28;20104;-91
2023/12/19 03:59:08;;;;;;;1.30;1.30;;;;;;;2.09;100.00;101378.06;5045118;28;20049;-90
2023/12/19 04:01:42;;;;;;;1.30;1.30;;;;;;;1.95;100.00;101366.38;5046493;28;20407;-91
2023/12/19 04:04:07;;;;;;;1.35;1.35;;;;;;;2.04;100.00;101394.56;5044969;28;20069;-90
2023/12/19 04:06:33;;;;;;;1.10;1.10;;;;;;;1.93;100.00;101381.19;5035030;28;20021;-89
2023/12/19 04:08:58;;;;;;;1.40;1.40;;;;;;;2.00;100.00;101393.63;5049968;28;20025;-90
2023/12/19 04:11:24;;;;;;;1.30;1.30;;;;;;;1.77;100.00;101363.31;5053627;28;20050;-89
2023/12/19 04:13:50;;;;;;;1.50;1.50;;;;;;;1.69;100.00;101343.91;5072025;28;20033;-89
2023/12/19 04:16:15;;;;;;;1.40;1.40;;;;;;;1.97;100.00;101383.06;5044091;28;20116;-91
2023/12/19 04:18:41;;;;;;;1.30;1.30;;;;;;;1.90;100.00;101374.97;5050218;28;20040;-89
2023/12/19 04:21:07;;;;;;;1.30;1.30;;;;;;;2.00;100.00;101391.00;5044268;28;20029;-89
2023/12/19 04:23:34;;;;;;;1.30;1.30;;;;;;;1.98;100.00;101374.31;5047131;28;20028;-89
2023/12/19 04:25:59;;;;;;;1.25;1.25;;;;;;;2.03;100.00;101382.28;5034395;28;20033;-90
2023/12/19 04:28:25;;;;;;;1.25;1.25;;;;;;;1.93;100.00;101357.59;5032289;28;20029;-90
2023/12/19 04:30:50;;;;;;;1.40;1.40;;;;;;;1.77;100.00;101328.34;5035217;28;20105;-89
2023/12/19 04:33:16;;;;;;;1.30;1.30;;;;;;;1.93;100.00;101348.84;5053745;28;20021;-89
2023/12/19 04:35:41;;;;;;;1.40;1.40;;;;;;;1.96;100.00;101349.78;5052839;28;20101;-90
2023/12/19 04:38:06;;;;;;;1.58;1.58;;;;;;;1.88;100.00;101330.34;5041705;28;20059;-89
2023/12/19 04:40:32;;;;;;;1.50;1.50;;;;;;;1.99;100.00;101354.22;5054767;28;20032;-90
2023/12/19 04:42:58;;;;;;;1.30;1.30;;;;;;;1.86;100.00;101347.78;5052095;28;20019;-89
2023/12/19 05:53:45;;;;;;;1.30;1.30;;;;;;;1.43;100.00;101324.03;5727554;22;20075;-89
2023/12/19 06:13:09;;;;;;;1.30;1.30;;;;;;;1.95;100.00;101399.59;5394773;23;20123;31
2023/12/19 06:15:34;;;;;;;1.30;1.30;;;;;;;1.82;100.00;101372.19;4951124;29;20092;-90
2023/12/19 06:18:00;;;;;;;1.40;1.40;;;;;;;1.91;100.00;101372.41;4946695;29;20028;-90
2023/12/19 06:20:25;;;;;;;1.40;1.40;;;;;;;1.61;100.00;101329.72;4936083;29;20092;-90
2023/12/19 06:22:51;;;;;;;1.40;1.40;;;;;;;1.93;100.00;101372.47;4933906;29;20046;-90
2023/12/19 06:25:16;;;;;;;1.30;1.30;;;;;;;2.04;100.00;101384.09;4927962;29;20040;-90
2023/12/19 06:27:43;;;;;;;1.40;1.40;;;;;;;1.79;100.00;101356.38;4915027;29;20045;-90
2023/12/19 06:30:10;;;;;;;1.40;1.40;;;;;;;1.76;100.00;101365.91;4913824;29;20033;-90
2023/12/19 06:32:40;;;;;;;1.30;1.30;;;;;;;1.94;100.00;101384.72;4928683;29;20066;-90
2023/12/19 06:35:07;;;;;;;1.40;1.40;;;;;;;1.85;100.00;101374.88;4929983;29;20032;-90
2023/12/19 06:40:07;;;;;;;1.30;1.30;;;;;;;1.95;100.00;101403.13;5009653;28;20042;-90
2023/12/19 06:42:33;;;;;;;1.30;1.30;;;;;;;1.85;100.00;101387.09;5013480;28;20086;-90
2023/12/19 06:45:00;;;;;;;1.40;1.40;;;;;;;1.81;100.00;101370.44;4996056;28;20057;-90
2023/12/19 06:47:27;;;;;;;1.30;1.30;;;;;;;1.81;100.00;101373.06;5008841;28;20049;-91
2023/12/19 06:49:53;;;;;;;1.13;1.13;;;;;;;1.75;100.00;101391.25;5010243;28;20113;-90
2023/12/19 06:52:19;;;;;;;1.48;1.48;;;;;;;1.56;100.00;101357.56;4994454;28;20006;-91
2023/12/19 06:54:46;;;;;;;1.40;1.40;;;;;;;1.43;100.00;101371.22;5007477;28;20031;-91
2023/12/19 06:57:11;;;;;;;1.30;1.30;;;;;;;1.70;100.00;101398.09;4985160;28;20050;-90
2023/12/19 06:59:37;;;;;;;1.50;1.50;;;;;;;1.42;100.00;101353.69;4993465;28;20015;-90
2023/12/19 07:02:03;;;;;;;1.40;1.40;;;;;;;1.47;100.00;101373.03;4984465;28;20042;-90
2023/12/19 07:04:29;;;;;;;1.35;1.35;;;;;;;1.44;100.00;101377.31;5013316;28;20026;-90
2023/12/19 07:06:54;;;;;;;1.40;1.40;;;;;;;1.48;100.00;101390.56;5002403;28;20018;-90
2023/12/19 07:09:20;;;;;;;1.30;1.30;;;;;;;1.62;100.00;101404.91;4988626;28;20654;-90
2023/12/19 07:11:45;;;;;;;1.33;1.33;;;;;;;1.26;100.00;101372.50;4980681;28;20054;-90
2023/12/19 07:14:11;;;;;;;1.30;1.30;;;;;;;1.51;100.00;101422.09;4990496;28;20023;-90
2023/12/19 07:16:36;;;;;;;1.30;1.30;;;;;;;1.33;100.00;101395.41;4992330;28;20006;-90
2023/12/19 07:19:03;;;;;;;1.40;1.40;;;;;;;1.18;100.00;101369.69;4983050;28;20080;-91
2023/12/19 07:21:31;;;;;;;1.23;1.23;;;;;;;1.10;100.00;101359.84;4993359;28;20070;-90
2023/12/19 07:23:58;;;;;;;1.40;1.40;;;;;;;1.38;100.00;101399.91;5011575;28;20002;-91
2023/12/19 07:26:26;;;;;;;1.38;1.38;;;;;;;1.39;100.00;101379.84;4997396;28;20443;-91
2023/12/19 07:31:34;;;;;;;1.40;1.40;;;;;;;1.43;100.00;101365.97;5007970;28;20070;-90
2023/12/19 07:34:04;;;;;;;1.40;1.40;;;;;;;1.70;100.00;101400.72;4990720;28;20137;-91
2023/12/19 07:36:30;;;;;;;1.40;1.40;;;;;;;1.51;100.00;101356.56;5010029;28;20070;-91
2023/12/19 07:38:56;;;;;;;1.40;1.40;;;;;;;1.72;100.00;101375.44;4995717;28;20091;-91
2023/12/19 07:41:26;;;;;;;1.40;1.40;;;;;;;1.75;100.00;101366.75;4973636;28;20022;-91
2023/12/19 07:43:55;;;;;;;1.40;1.40;;;;;;;2.02;100.00;101397.16;4974573;28;20023;-90
2023/12/19 07:46:21;;;;;;;1.50;1.50;;;;;;;1.87;100.00;101375.81;4967468;29;20379;-90
2023/12/19 07:48:47;;;;;;;1.50;1.50;;;;;;;1.97;100.00;101383.06;4952719;29;20110;-91
2023/12/19 07:51:21;;;;;;;1.40;1.40;;;;;;;2.04;100.00;101369.19;4967538;28;20026;-91
2023/12/19 07:53:47;;;;;;;1.30;1.30;;;;;;;2.12;100.00;101374.66;4984186;28;20567;-91
2023/12/19 07:56:13;;;;;;;1.40;1.40;;;;;;;2.09;100.00;101351.81;4970246;28;20033;-91
2023/12/19 07:58:38;;;;;;;1.30;1.30;;;;;;;2.43;100.00;101396.38;4983715;28;20138;-90
2023/12/19 08:01:04;;;;;;;1.15;1.15;;;;;;;2.38;100.00;101371.75;4975623;28;20051;-91
2023/12/19 08:03:30;;;;;;;1.10;1.10;;;;;;;2.35;100.00;101383.91;4975713;28;20042;-91
2023/12/19 08:05:56;;;;;;;1.30;1.30;;;;;;;2.39;100.00;101378.75;4974988;28;20110;-91
2023/12/19 08:08:23;;;;;;;1.30;1.30;;;;;;;2.40;100.00;101359.56;4978015;28;20030;-91
2023/12/19 08:10:49;;;;;;;1.25;1.25;;;;;;;2.34;100.00;101322.66;4980733;28;20010;-90
2023/12/19 08:13:15;;;;;;;1.20;1.20;;;;;;;2.60;100.00;101360.84;4975693;28;20041;-91
2023/12/19 08:15:41;;;;;;;1.25;1.25;;;;;;;2.54;100.00;101338.81;4963607;29;20022;-91
2023/12/19 08:18:07;;;;;;;1.27;1.27;;;;;;;2.57;100.00;101347.66;4955867;28;20019;-91
2023/12/19 08:20:33;;;;;;;1.27;1.27;;;;;;;2.59;100.00;101374.81;4957093;29;20027;-90
2023/12/19 08:25:34;;;;;;;1.30;1.30;;;;;;;2.62;100.00;101364.38;5672229;23;21165;-92
2023/12/19 08:28:01;;;;;;;1.40;1.40;;;;;;;2.50;100.00;101347.50;5035824;28;20085;-91
2023/12/19 08:30:27;;;;;;;1.17;1.17;;;;;;;2.64;100.00;101367.94;5036600;28;20030;-91
2023/12/19 08:32:56;;;;;;;1.25;1.25;;;;;;;2.56;100.00;101348.50;5035229;28;20026;-91
2023/12/19 08:35:21;;;;;;;1.17;1.17;;;;;;;2.54;100.00;101358.09;5032524;28;20033;-92
2023/12/19 08:37:48;;;;;;;1.15;1.15;;;;;;;2.61;100.00;101348.59;5033507;28;20037;-93
2023/12/19 08:40:13;;;;;;;1.30;1.30;;;;;;;2.55;100.00;101328.34;5048336;28;20040;-91
2023/12/19 08:42:40;;;;;;;1.30;1.30;;;;;;;2.64;100.00;101312.78;5030260;28;20073;-93
2023/12/19 08:45:16;;;;;;;1.13;1.13;;;;;;;2.80;100.00;101313.09;5027079;28;20022;-91
2023/12/19 08:47:46;;;;;;;1.10;1.10;;;;;;;3.02;100.00;101325.75;5021949;28;20079;-91
2023/12/19 08:50:15;;;;;;;1.15;1.15;;;;;;;4.19;100.00;101305.72;5036238;28;20020;-89
2023/12/19 08:52:42;;;;;;;0.98;0.98;;;;;;;6.65;100.00;101320.28;5037949;28;20365;-89
2023/12/19 08:55:10;;;;;;;1.00;1.00;;;;;;;8.08;100.00;101278.06;5020275;28;20037;-91
2023/12/19 08:57:39;;;;;;;0.80;0.80;;;;;;;9.73;94.93;101284.22;5019516;28;20053;-90
2023/12/19 09:00:06;;;;;;;0.70;0.70;;;;;;;10.98;69.58;101271.22;5021159;28;20025;-90
2023/12/19 09:02:31;;;;;;;0.80;0.80;;;;;;;12.32;60.75;101288.50;5017109;28;20021;-91
2023/12/19 09:04:57;;;;;;;0.77;0.77;;;;;;;13.48;59.96;101296.66;5024030;28;20035;-92
2023/12/19 09:07:22;;;;;;;0.68;0.68;;;;;;;14.43;54.76;101299.56;5038000;28;20363;-92
2023/12/19 09:09:47;;;;;;;0.63;0.63;;;;;;;14.54;50.56;101297.44;5018630;28;20077;-92
2023/12/19 09:12:13;;;;;;;0.60;0.60;;;;;;;14.18;50.68;101311.81;5018903;28;20120;-92
2023/12/19 09:14:39;;;;;;;0.65;0.65;;;;;;;14.03;49.93;101322.91;5019661;28;20545;-92
2023/12/19 09:17:04;;;;;;;0.70;0.70;;;;;;;14.44;49.93;101317.38;5021943;28;20025;-92
2023/12/19 09:19:31;;;;;;;0.60;0.60;;;;;;;14.61;48.44;101315.09;5019003;28;20032;-92
2023/12/19 09:21:59;;;;;;;0.60;0.60;;;;;;;14.62;46.64;101292.75;5023517;28;20028;-92
2023/12/19 09:24:30;;;;;;;0.50;0.50;;;;;;;14.83;46.43;101309.97;5024463;28;20021;-93
2023/12/19 09:26:56;;;;;;;0.50;0.50;;;;;;;14.10;47.62;101309.31;5036005;28;20065;-92
2023/12/19 09:29:23;;;;;;;0.50;0.50;;;;;;;13.56;47.11;101302.69;5028475;28;20033;-93
2023/12/19 09:31:48;;;;;;;0.60;0.60;;;;;;;13.04;48.89;101288.81;5028041;28;20025;-92
2023/12/19 09:44:37;;;;;;;0.70;0.70;;;;;;;13.39;47.81;101288.00;5122857;23;20051;-91
2023/12/19 09:47:03;;;;;;;0.70;0.70;;;;;;;13.32;48.17;101267.66;5049111;28;20061;-92
2023/12/19 09:52:05;;;;;;;0.70;0.70;;;;;;;12.48;49.62;101281.06;5007448;28;20294;-91
2023/12/19 09:59:43;;;;;;;0.60;0.60;;;;;;;11.69;51.96;101263.03;5006416;28;20522;-91
2023/12/19 10:02:09;;;;;;;0.60;0.60;;;;;;;11.68;52.97;101256.81;4987663;28;20053;-92
2023/12/19 10:28:03;;;;;;;0.73;0.73;;;;;;;10.22;60.08;101263.34;4995757;28;20058;-92
2023/12/19 10:30:29;;;;;;;0.70;0.70;;;;;;;10.15;59.67;101235.94;4980757;28;20072;-92
2023/12/19 10:32:57;;;;;;;0.70;0.70;;;;;;;10.28;60.27;101245.53;4981532;28;20041;-91
2023/12/19 10:35:23;;;;;;;0.80;0.80;;;;;;;9.96;59.18;101241.44;4984887;28;20018;-92
2023/12/19 10:37:48;;;;;;;0.60;0.60;;;;;;;9.56;61.21;101240.06;5001707;28;20027;-93
2023/12/19 10:40:19;;;;;;;0.70;0.70;;;;;;;10.14;61.57;101243.94;5000358;28;20029;-93
2023/12/19 10:42:55;;;;;;;0.77;0.77;;;;;;;10.88;57.90;101221.69;4983980;28;20022;-93
2023/12/19 10:45:21;;;;;;;0.70;0.70;;;;;;;11.06;54.17;101152.19;4982299;28;20018;-92
2023/12/19 10:47:47;;;;;;;0.70;0.70;;;;;;;11.83;54.09;101194.34;4977419;28;20554;-92
2023/12/19 10:50:12;;;;;;;0.60;0.60;;;;;;;12.03;52.90;101183.28;4977855;28;20022;-92
2023/12/19 10:52:40;;;;;;;0.60;0.60;;;;;;;12.19;52.94;101169.59;4979774;28;20027;-92
2023/12/19 10:55:11;;;;;;;0.70;0.70;;;;;;;13.26;51.30;101168.94;4980784;28;20018;-93
2023/12/19 10:57:39;;;;;;;0.70;0.70;;;;;;;14.32;48.09;101151.75;4981997;28;20046;-92
2023/12/19 11:00:13;;;;;;;0.70;0.70;;;;;;;15.49;46.23;101188.16;4982107;28;20081;-92
2023/12/19 11:02:48;;;;;;;0.65;0.65;;;;;;;14.78;45.25;101184.22;4982022;28;20053;-92
2023/12/19 11:05:33;;;;;;;0.60;0.60;;;;;;;13.08;47.89;101176.50;4977615;28;20023;-91
2023/12/19 11:08:03;;;;;;;0.60;0.60;;;;;;;11.56;51.42;101171.75;4980543;28;20654;-91
2023/12/19 11:10:33;;;;;;;0.70;0.70;;;;;;;10.39;55.73;101157.66;4979585;28;20521;-92
2023/12/19 11:12:59;;;;;;;0.70;0.70;;;;;;;9.99;58.95;101169.66;4979111;28;20026;-91
2023/12/19 11:15:27;;;;;;;0.63;0.63;;;;;;;9.53;61.45;101163.97;4980810;28;20103;-92
2023/12/19 11:18:02;;;;;;;0.77;0.77;;;;;;;9.23;64.76;101130.63;4975206;28;20472;-91
2023/12/19 11:20:38;;;;;;;0.70;0.70;;;;;;;9.22;66.61;101133.31;4979420;28;20026;-90
2023/12/19 11:23:28;;;;;;;0.80;0.80;;;;;;;9.22;66.06;101155.41;4966953;28;20782;-92
2023/12/19 11:26:03;;;;;;;0.80;0.80;;;;;;;8.61;67.03;101134.69;4976317;28;20514;-92
2023/12/19 11:28:36;;;;;;;0.70;0.70;;;;;;;8.41;69.02;101134.81;4960457;28;20049;-90
2023/12/19 11:31:01;;;;;;;0.80;0.80;;;;;;;8.14;70.60;101108.44;4978475;28;20038;-91
2023/12/19 11:33:31;;;;;;;0.63;0.63;;;;;;;8.17;71.81;101099.59;4982170;28;20088;-93
2023/12/19 11:36:10;;;;;;;0.65;0.65;;;;;;;8.45;72.96;101115.34;4981116;28;20026;-91
2023/12/19 11:38:36;;;;;;;0.70;0.70;;;;;;;8.73;72.89;101097.47;4980891;28;20798;-91
2023/12/19 11:41:02;;;;;;;0.80;0.80;;;;;;;8.98;70.39;101097.25;4980187;28;20026;-92
2023/12/19 11:43:27;;;;;;;0.60;0.60;;;;;;;9.49;70.98;101090.53;4980964;28;20043;-93
2023/12/19 11:46:15;;;;;;;0.70;0.70;;;;;;;10.00;66.58;101084.56;4984312;28;20089;-92
2023/12/19 11:48:51;;;;;;;0.70;0.70;;;;;;;10.22;65.15;101064.81;4981113;28;20026;-91
2023/12/19 11:51:43;;;;;;;0.70;0.70;;;;;;;11.08;61.92;101055.41;4981917;28;20085;-92
2023/12/19 11:54:13;;;;;;;0.60;0.60;;;;;;;12.04;57.83;101073.94;4971526;28;20046;-92
2023/12/19 11:56:39;;;;;;;0.70;0.70;;;;;;;11.93;55.86;101054.63;4988380;28;20053;-92
2023/12/19 11:59:04;;;;;;;0.65;0.65;;;;;;;11.83;56.56;101048.59;4961331;28;20479;-92
2023/12/19 12:01:38;;;;;;;0.70;0.70;;;;;;;12.36;55.99;101054.53;4961823;28;20018;-92
2023/12/19 12:04:06;;;;;;;0.60;0.60;;;;;;;12.16;54.65;101036.31;4980923;28;20046;-92
2023/12/19 12:06:32;;;;;;;0.60;0.60;;;;;;;12.00;55.26;101028.69;4976770;28;20090;-93
2023/12/19 12:08:59;;;;;;;0.60;0.60;;;;;;;11.73;55.81;101031.06;4967398;28;20031;-92
2023/12/19 12:11:25;;;;;;;0.60;0.60;;;;;;;11.15;55.18;101037.53;4970739;28;20076;-92
2023/12/19 12:14:02;;;;;;;0.60;0.60;;;;;;;10.60;58.54;101017.22;4979245;28;20480;-92
2023/12/19 12:16:40;;;;;;;0.60;0.60;;;;;;;10.42;60.83;101020.19;4980786;28;20026;-91
2023/12/19 12:19:26;;;;;;;0.70;0.70;;;;;;;10.01;62.29;100984.47;4978680;28;20021;-90
2023/12/19 12:21:52;;;;;;;0.60;0.60;;;;;;;9.82;63.04;101029.03;4977218;28;20027;-91
2023/12/19 12:24:22;;;;;;;0.60;0.60;;;;;;;9.47;64.43;101022.41;4979168;28;20058;-91
2023/12/19 12:26:48;;;;;;;0.70;0.70;;;;;;;9.17;65.25;101018.34;4979437;28;20105;-91
2023/12/19 12:29:19;;;;;;;0.70;0.70;;;;;;;8.85;66.69;100989.47;4985270;28;20030;-93
2023/12/19 12:31:46;;;;;;;0.73;0.73;;;;;;;8.59;67.96;100985.31;4964893;28;20105;-92
2023/12/19 12:34:12;;;;;;;0.70;0.70;;;;;;;8.65;69.48;100990.59;4969378;28;20018;-92
2023/12/19 12:36:38;;;;;;;0.70;0.70;;;;;;;8.39;68.50;100974.00;4981645;28;20392;-91
2023/12/19 12:39:04;;;;;;;0.55;0.55;;;;;;;8.41;70.84;100978.41;4981178;28;20029;-89
2023/12/19 12:41:30;;;;;;;0.70;0.70;;;;;;;8.41;71.29;100988.13;4983127;28;20098;-90
2023/12/19 12:43:56;;;;;;;0.70;0.70;;;;;;;8.12;71.47;100955.66;4998065;28;20050;-92
2023/12/19 12:46:24;;;;;;;0.80;0.80;;;;;;;8.13;72.71;100975.94;4980086;28;20845;-91
2023/12/19 12:48:53;;;;;;;0.80;0.80;;;;;;;8.10;72.94;100978.63;4977642;28;20023;-91
2023/12/19 12:51:22;;;;;;;0.73;0.73;;;;;;;7.52;73.30;100878.41;4979155;28;20041;-91
2023/12/19 12:54:00;;;;;;;0.80;0.80;;;;;;;7.86;74.95;100948.78;4979306;28;20450;-91
2023/12/19 12:56:38;;;;;;;0.80;0.80;;;;;;;7.81;75.23;100979.69;4980245;28;20136;-93
2023/12/19 12:59:09;;;;;;;0.80;0.80;;;;;;;7.66;75.67;100949.81;4997490;28;20022;-91
2023/12/19 13:01:38;;;;;;;0.77;0.77;;;;;;;7.70;76.73;100946.22;4975447;28;20053;-90
2023/12/19 13:04:04;;;;;;;0.70;0.70;;;;;;;7.55;77.55;100923.38;4974887;28;20030;-91
2023/12/19 13:06:30;;;;;;;0.80;0.80;;;;;;;7.62;77.59;100946.28;4985611;28;20018;-92
2023/12/19 13:08:56;;;;;;;0.80;0.80;;;;;;;7.39;78.86;100918.19;4997525;28;20034;-92
2023/12/19 13:11:22;;;;;;;0.80;0.80;;;;;;;7.33;78.74;100908.50;4979480;28;20810;-90
2023/12/19 13:13:48;;;;;;;0.80;0.80;;;;;;;7.20;79.35;100896.22;4979608;28;20058;-90
2023/12/19 13:16:14;;;;;;;0.75;0.75;;;;;;;7.34;79.34;100915.56;4978137;28;20030;-90
2023/12/19 13:18:40;;;;;;;0.70;0.70;;;;;;;7.42;79.48;100931.41;4996756;28;20026;-91
2023/12/19 13:21:05;;;;;;;0.70;0.70;;;;;;;7.28;80.04;100926.16;4979132;28;20535;-92
2023/12/19 13:23:32;;;;;;;0.60;0.60;;;;;;;7.21;79.98;100907.69;4978616;28;20023;-92
2023/12/19 13:25:57;;;;;;;0.70;0.70;;;;;;;7.27;80.75;100913.84;4975376;28;20047;-92
2023/12/19 13:28:24;;;;;;;0.70;0.70;;;;;;;7.26;81.02;100892.69;4974820;28;20777;-91
2023/12/19 13:30:50;;;;;;;0.85;0.85;;;;;;;7.34;81.66;100907.63;4976090;28;20031;-90
2023/12/19 13:33:15;;;;;;;0.70;0.70;;;;;;;7.40;81.40;100915.53;4974328;28;20022;-90
2023/12/19 13:35:41;;;;;;;0.70;0.70;;;;;;;7.25;81.61;100907.66;4975939;28;20035;-91
2023/12/19 13:38:08;;;;;;;0.70;0.70;;;;;;;7.23;80.56;100906.78;4974963;28;20042;-91
2023/12/19 13:40:34;;;;;;;0.80;0.80;;;;;;;7.19;79.91;100901.53;4974575;28;20030;-91
2023/12/19 13:43:02;;;;;;;0.80;0.80;;;;;;;7.19;80.44;100905.06;4976606;28;20027;-91
2023/12/19 13:45:28;;;;;;;0.80;0.80;;;;;;;6.95;80.26;100873.44;4974435;28;20033;-92
2023/12/19 13:47:54;;;;;;;0.55;0.55;;;;;;;7.22;80.43;100907.69;4974724;28;20166;-92
2023/12/19 13:50:20;;;;;;;0.70;0.70;;;;;;;6.80;80.72;100857.63;4973964;28;20069;-91
2023/12/19 13:52:49;;;;;;;0.77;0.77;;;;;;;7.01;80.63;100877.81;4974597;28;20744;-89
2023/12/19 13:55:15;;;;;;;0.70;0.70;;;;;;;7.21;80.24;100900.66;4974827;28;20707;-90
2023/12/19 13:57:41;;;;;;;0.70;0.70;;;;;;;7.18;80.28;100891.84;4974583;28;20029;-90
2023/12/19 14:00:14;;;;;;;0.70;0.70;;;;;;;7.27;80.44;100903.25;4975961;28;20031;-90
2023/12/19 14:02:43;;;;;;;0.70;0.70;;;;;;;7.17;80.28;100895.34;4974376;28;20034;-91
2023/12/19 14:05:09;;;;;;;0.73;0.73;;;;;;;7.30;80.82;100903.22;4975169;28;20057;-91
2023/12/19 14:07:35;;;;;;;0.75;0.75;;;;;;;7.17;80.37;100879.47;4968237;28;20702;-91
2023/12/19 14:10:01;;;;;;;0.77;0.77;;;;;;;7.36;81.21;100899.69;4973999;28;20023;-90
2023/12/19 14:12:28;;;;;;;0.80;0.80;;;;;;;7.17;81.76;100875.06;4973398;28;20023;-91
2023/12/19 14:14:54;;;;;;;0.80;0.80;;;;;;;7.27;82.20;100897.97;4974039;28;20030;-90
2023/12/19 14:17:19;;;;;;;0.70;0.70;;;;;;;7.24;82.33;100891.78;4973956;28;20047;-90
2023/12/19 14:19:45;;;;;;;0.75;0.75;;;;;;;7.13;82.09;100878.66;4964660;28;20023;-91
2023/12/19 14:22:11;;;;;;;0.77;0.77;;;;;;;7.15;82.60;100891.84;4954608;29;20034;-90
2023/12/19 14:24:37;;;;;;;0.80;0.80;;;;;;;6.99;83.07;100869.88;4954240;29;20051;-90
2023/12/19 14:27:03;;;;;;;0.70;0.70;;;;;;;6.98;83.38;100889.28;4954180;28;20073;-91